Wetterdaten: Woche 02.05.05 - 08.05.05 (KW18)
Datum Zeit Temperatur Luftfeuchte Luftdruck Niederschlag Wind Richtung Sonne Solar Taupunkt Windchill
02.05.2005 00:00 13.8 C 86 % 1015.6 hPa 0.0 l/m 1.3 km/h (1 Bft) O-SO 0.00 h 0 W/m 11.4 C 13.8 C
02.05.2005 01:00 13.4 C 86 % 1015.7 hPa 0.0 l/m 2.2 km/h (1 Bft) O-SO 0.00 h 0 W/m 11.1 C 13.4 C
02.05.2005 02:00 12.1 C 92 % 1015.8 hPa 0.0 l/m 0.6 km/h (0 Bft) O-SO 0.00 h 0 W/m 10.9 C 12.1 C
02.05.2005 03:00 11.2 C 96 % 1016.0 hPa 0.0 l/m 0.7 km/h (0 Bft) O-SO 0.00 h 0 W/m 10.5 C 11.2 C
02.05.2005 04:00 10.7 C 96 % 1016.0 hPa 0.0 l/m 0.4 km/h (0 Bft) O-SO 0.00 h 0 W/m 10.0 C 10.7 C
02.05.2005 05:00 10.1 C 98 % 1016.1 hPa 0.0 l/m 0.8 km/h (0 Bft) O-SO 0.00 h 0 W/m 9.8 C 10.1 C
02.05.2005 06:00 9.6 C 100 % 1016.2 hPa 0.0 l/m 0.3 km/h (0 Bft) O-SO 0.07 h 25 W/m 9.6 C 9.6 C
02.05.2005 07:00 11.6 C 96 % 1015.9 hPa 0.0 l/m 0.3 km/h (0 Bft) O-SO 0.97 h 194 W/m 11.0 C 11.6 C
02.05.2005 08:00 14.3 C 81 % 1015.6 hPa 0.0 l/m 0.1 km/h (0 Bft) N 1.00 h 354 W/m 11.1 C 14.3 C
02.05.2005 09:00 17.1 C 72 % 1016.2 hPa 0.0 l/m 0.9 km/h (0 Bft) O-SO 1.00 h 498 W/m 11.9 C 17.1 C
02.05.2005 10:00 20.0 C 60 % 1015.8 hPa 0.0 l/m 2.6 km/h (1 Bft) O-SO 1.00 h 632 W/m 11.9 C 20.0 C
02.05.2005 11:00 22.2 C 52 % 1014.7 hPa 0.0 l/m 4.6 km/h (1 Bft) O-SO 1.00 h 653 W/m 11.8 C 22.2 C
02.05.2005 12:00 24.6 C 47 % 1014.2 hPa 0.0 l/m 7.2 km/h (2 Bft) SO 1.00 h 766 W/m 12.3 C 24.6 C
02.05.2005 13:00 26.4 C 40 % 1014.0 hPa 0.0 l/m 10.4 km/h (2 Bft) SO 1.00 h 849 W/m 11.6 C 26.4 C
02.05.2005 14:00 28.2 C 34 % 1012.9 hPa 0.0 l/m 15.6 km/h (3 Bft) SO 1.00 h 780 W/m 10.7 C 28.2 C
02.05.2005 15:00 27.7 C 31 % 1012.9 hPa 0.0 l/m 23.5 km/h (4 Bft) W-NW 0.63 h 441 W/m 8.7 C 27.7 C
02.05.2005 16:00 26.7 C 30 % 1014.0 hPa 0.0 l/m 26.0 km/h (4 Bft) NW 1.00 h 436 W/m 7.6 C 26.7 C
02.05.2005 17:00 25.8 C 30 % 1014.1 hPa 0.0 l/m 23.0 km/h (4 Bft) NW 1.00 h 285 W/m 6.8 C 25.8 C
02.05.2005 18:00 25.2 C 31 % 1014.6 hPa 0.0 l/m 16.4 km/h (3 Bft) W-NW 0.77 h 195 W/m 7.0 C 25.2 C
02.05.2005 19:00 24.2 C 34 % 1015.3 hPa 0.0 l/m 12.6 km/h (3 Bft) W-NW 0.40 h 85 W/m 7.2 C 24.2 C
02.05.2005 20:00 21.2 C 47 % 1015.7 hPa 0.0 l/m 6.7 km/h (2 Bft) O-SO 0.00 h 9 W/m 9.3 C 21.2 C
02.05.2005 21:00 18.9 C 57 % 1016.4 hPa 0.0 l/m 2.9 km/h (1 Bft) O-SO 0.00 h 0 W/m 10.2 C 18.9 C
02.05.2005 22:00 17.2 C 68 % 1017.2 hPa 0.0 l/m 5.6 km/h (1 Bft) O-SO 0.00 h 0 W/m 11.1 C 17.2 C
02.05.2005 23:00 16.5 C 71 % 1017.3 hPa 0.0 l/m 1.7 km/h (1 Bft) O-SO 0.00 h 0 W/m 11.3 C 16.5 C
03.05.2005 00:00 16.0 C 76 % 1017.3 hPa 0.0 l/m 0.3 km/h (0 Bft) O-SO 0.00 h 0 W/m 11.7 C 16.0 C
03.05.2005 01:00 15.7 C 77 % 1017.3 hPa 0.0 l/m 3.5 km/h (1 Bft) O-SO 0.00 h 0 W/m 11.7 C 15.7 C
03.05.2005 02:00 15.1 C 83 % 1016.9 hPa 0.0 l/m 0.9 km/h (0 Bft) O-SO 0.00 h 0 W/m 12.3 C 15.1 C
03.05.2005 03:00 14.3 C 92 % 1016.7 hPa 0.3 l/m 2.6 km/h (1 Bft) O-SO 0.00 h 0 W/m 13.1 C 14.3 C
03.05.2005 04:00 14.3 C 98 % 1017.3 hPa 0.9 l/m 0.0 km/h (0 Bft) N 0.00 h 0 W/m 14.0 C 14.3 C
03.05.2005 05:00 13.8 C 100 % 1018.3 hPa 1.2 l/m 1.6 km/h (1 Bft) O-SO 0.00 h 0 W/m 13.8 C 13.8 C
03.05.2005 06:00 13.9 C 100 % 1018.5 hPa 0.6 l/m 0.0 km/h (0 Bft) N 0.00 h 5 W/m 13.9 C 13.9 C
03.05.2005 07:00 14.2 C 100 % 1018.2 hPa 0.3 l/m 0.0 km/h (0 Bft) N 0.00 h 40 W/m 14.2 C 14.2 C
03.05.2005 08:00 14.7 C 99 % 1017.9 hPa 0.0 l/m 1.8 km/h (1 Bft) W-NW 0.00 h 68 W/m 14.6 C 14.7 C
03.05.2005 09:00 14.6 C 100 % 1018.1 hPa 1.8 l/m 2.9 km/h (1 Bft) O-SO 0.00 h 69 W/m 14.6 C 14.6 C
03.05.2005 10:00 14.9 C 100 % 1017.9 hPa 0.0 l/m 0.5 km/h (0 Bft) W 0.00 h 143 W/m 14.8 C 14.9 C
03.05.2005 11:00 15.5 C 98 % 1017.5 hPa 0.6 l/m 0.0 km/h (0 Bft) N 0.10 h 220 W/m 15.1 C 15.5 C
03.05.2005 12:00 17.4 C 91 % 1016.6 hPa 0.0 l/m 3.1 km/h (1 Bft) SO 0.70 h 470 W/m 15.9 C 17.4 C
03.05.2005 13:00 19.1 C 78 % 1016.0 hPa 0.0 l/m 3.4 km/h (1 Bft) SO 0.97 h 781 W/m 15.2 C 19.1 C
03.05.2005 14:00 20.5 C 68 % 1015.0 hPa 0.0 l/m 4.1 km/h (1 Bft) O-SO 0.67 h 565 W/m 14.4 C 20.5 C
03.05.2005 15:00 14.9 C 86 % 1015.8 hPa 2.4 l/m 19.0 km/h (3 Bft) NW 0.00 h 66 W/m 12.4 C 14.9 C
03.05.2005 16:00 14.1 C 95 % 1016.6 hPa 0.6 l/m 24.6 km/h (4 Bft) NW 0.00 h 131 W/m 13.3 C 14.1 C
03.05.2005 17:00 13.7 C 93 % 1017.3 hPa 0.9 l/m 11.6 km/h (2 Bft) W-NW 0.03 h 96 W/m 12.7 C 13.7 C
03.05.2005 18:00 14.2 C 92 % 1017.6 hPa 0.0 l/m 4.0 km/h (1 Bft) SO 0.10 h 149 W/m 13.0 C 14.2 C
03.05.2005 19:00 14.3 C 93 % 1017.0 hPa 0.0 l/m 4.1 km/h (1 Bft) O-SO 0.20 h 75 W/m 13.2 C 14.3 C
03.05.2005 20:00 14.2 C 92 % 1016.8 hPa 0.0 l/m 5.0 km/h (1 Bft) SO 0.50 h 41 W/m 13.0 C 14.2 C
03.05.2005 21:00 12.9 C 98 % 1017.8 hPa 0.0 l/m 1.3 km/h (1 Bft) SO 0.00 h 0 W/m 12.6 C 12.9 C
03.05.2005 22:00 12.4 C 100 % 1017.9 hPa 0.0 l/m 0.1 km/h (0 Bft) W 0.00 h 0 W/m 12.4 C 12.4 C
03.05.2005 23:00 12.1 C 99 % 1017.9 hPa 1.8 l/m 3.0 km/h (1 Bft) O-SO 0.00 h 0 W/m 12.0 C 12.1 C
04.05.2005 00:00 10.3 C 100 % 1018.6 hPa 0.0 l/m 6.7 km/h (2 Bft) SO 0.00 h 0 W/m 10.3 C 10.3 C
04.05.2005 01:00 10.2 C 100 % 1019.0 hPa 0.0 l/m 6.8 km/h (2 Bft) SO 0.00 h 0 W/m 10.2 C 9.8 C
04.05.2005 02:00 9.6 C 100 % 1018.3 hPa 0.0 l/m 1.6 km/h (1 Bft) O-SO 0.00 h 0 W/m 9.6 C 9.5 C
04.05.2005 03:00 9.8 C 100 % 1018.2 hPa 0.0 l/m 0.4 km/h (0 Bft) SO 0.00 h 0 W/m 9.8 C 9.8 C
04.05.2005 04:00 9.3 C 100 % 1017.3 hPa 0.0 l/m 0.6 km/h (0 Bft) O-SO 0.00 h 0 W/m 9.3 C 9.3 C
04.05.2005 05:00 9.6 C 100 % 1017.2 hPa 0.0 l/m 0.0 km/h (0 Bft) N 0.00 h 0 W/m 9.6 C 9.6 C
04.05.2005 06:00 10.1 C 100 % 1017.2 hPa 0.0 l/m 0.4 km/h (0 Bft) O-SO 0.00 h 8 W/m 10.1 C 10.1 C
04.05.2005 07:00 10.6 C 100 % 1017.1 hPa 0.0 l/m 0.6 km/h (0 Bft) O-SO 0.00 h 48 W/m 10.6 C 10.6 C
04.05.2005 08:00 11.5 C 97 % 1016.8 hPa 0.0 l/m 0.0 km/h (0 Bft) N 0.20 h 151 W/m 11.1 C 11.5 C
04.05.2005 09:00 12.6 C 89 % 1016.4 hPa 0.0 l/m 10.1 km/h (2 Bft) W-NW 0.35 h 267 W/m 10.9 C 12.6 C
04.05.2005 10:00 13.7 C 76 % 1015.6 hPa 0.0 l/m 13.5 km/h (3 Bft) W-NW 0.38 h 483 W/m 9.6 C 13.7 C
04.05.2005 11:00 14.6 C 67 % 1015.7 hPa 0.0 l/m 25.1 km/h (4 Bft) NW 0.68 h 416 W/m 8.6 C 14.6 C
04.05.2005 12:00 14.3 C 67 % 1015.7 hPa 0.0 l/m 30.2 km/h (5 Bft) NW 0.47 h 539 W/m 8.3 C 14.3 C
04.05.2005 13:00 14.1 C 67 % 1015.6 hPa 0.0 l/m 27.3 km/h (4 Bft) NW 0.03 h 330 W/m 8.0 C 14.1 C
04.05.2005 14:00 15.0 C 66 % 1015.5 hPa 0.0 l/m 12.5 km/h (3 Bft) W-NW 0.63 h 443 W/m 8.7 C 15.0 C
04.05.2005 15:00 16.4 C 59 % 1014.7 hPa 0.0 l/m 15.8 km/h (3 Bft) NW 0.50 h 454 W/m 8.5 C 16.4 C
04.05.2005 16:00 12.6 C 84 % 1015.5 hPa 3.3 l/m 16.2 km/h (3 Bft) W-NW 0.07 h 100 W/m 9.8 C 12.6 C
04.05.2005 17:00 13.4 C 76 % 1015.0 hPa 0.0 l/m 20.8 km/h (4 Bft) NW 0.45 h 324 W/m 9.3 C 13.4 C
04.05.2005 18:00 14.8 C 67 % 1014.4 hPa 0.0 l/m 27.3 km/h (4 Bft) NW 1.00 h 436 W/m 8.8 C 14.8 C
04.05.2005 19:00 13.0 C 71 % 1014.7 hPa 0.0 l/m 22.0 km/h (4 Bft) W-NW 0.35 h 85 W/m 7.9 C 13.0 C
04.05.2005 20:00 11.4 C 80 % 1015.1 hPa 0.0 l/m 15.4 km/h (3 Bft) W-NW 0.55 h 36 W/m 7.9 C 11.4 C
04.05.2005 21:00 10.8 C 86 % 1016.0 hPa 0.0 l/m 7.6 km/h (2 Bft) W-NW 0.00 h 0 W/m 8.5 C 10.8 C
04.05.2005 22:00 10.5 C 89 % 1016.1 hPa 0.0 l/m 0.5 km/h (0 Bft) W-NW 0.00 h 0 W/m 8.7 C 10.5 C
04.05.2005 23:00 10.1 C 91 % 1016.1 hPa 0.0 l/m 0.5 km/h (0 Bft) W-NW 0.00 h 0 W/m 8.7 C 10.1 C
05.05.2005 00:00 9.7 C 94 % 1016.2 hPa 0.0 l/m 0.9 km/h (0 Bft) SO 0.00 h 0 W/m 8.7 C 9.6 C
05.05.2005 01:00 9.8 C 94 % 1016.2 hPa 0.0 l/m 2.3 km/h (1 Bft) SO 0.00 h 0 W/m 8.9 C 9.6 C
05.05.2005 02:00 9.8 C 92 % 1016.2 hPa 0.0 l/m 0.0 km/h (0 Bft) N 0.00 h 0 W/m 8.6 C 9.8 C
05.05.2005 03:00 9.2 C 96 % 1016.2 hPa 0.0 l/m 1.8 km/h (1 Bft) SO 0.00 h 0 W/m 8.7 C 9.1 C
05.05.2005 04:00 9.5 C 98 % 1016.2 hPa 0.0 l/m 0.3 km/h (0 Bft) SO 0.00 h 0 W/m 9.2 C 9.5 C
05.05.2005 05:00 9.9 C 93 % 1016.1 hPa 0.0 l/m 3.7 km/h (1 Bft) W-NW 0.00 h 0 W/m 8.9 C 9.8 C
05.05.2005 06:00 9.8 C 96 % 1016.0 hPa 0.3 l/m 0.8 km/h (0 Bft) W-NW 0.00 h 12 W/m 9.2 C 9.8 C
05.05.2005 07:00 9.7 C 98 % 1015.6 hPa 0.6 l/m 0.4 km/h (0 Bft) NW 0.00 h 20 W/m 9.4 C 9.7 C
05.05.2005 08:00 10.0 C 97 % 1016.1 hPa 0.9 l/m 0.1 km/h (0 Bft) N 0.00 h 86 W/m 9.6 C 10.0 C
05.05.2005 09:00 10.5 C 96 % 1016.1 hPa 0.3 l/m 0.1 km/h (0 Bft) W-NW 0.07 h 167 W/m 9.8 C 10.5 C
05.05.2005 10:00 11.3 C 92 % 1016.0 hPa 0.6 l/m 0.1 km/h (0 Bft) N 0.13 h 197 W/m 10.0 C 11.3 C
05.05.2005 11:00 11.9 C 89 % 1015.9 hPa 0.3 l/m 1.4 km/h (1 Bft) W-NW 0.52 h 398 W/m 10.2 C 11.9 C
05.05.2005 12:00 13.5 C 76 % 1015.7 hPa 0.0 l/m 5.1 km/h (1 Bft) W-NW 0.98 h 789 W/m 9.4 C 13.5 C
05.05.2005 13:00 13.9 C 73 % 1015.6 hPa 0.0 l/m 4.8 km/h (1 Bft) W-NW 0.17 h 280 W/m 9.2 C 13.9 C
05.05.2005 14:00 14.1 C 74 % 1015.6 hPa 0.3 l/m 4.8 km/h (1 Bft) W-NW 0.40 h 378 W/m 9.5 C 14.1 C
05.05.2005 15:00 13.9 C 73 % 1015.6 hPa 0.0 l/m 6.7 km/h (2 Bft) W-NW 0.33 h 403 W/m 9.1 C 13.9 C
05.05.2005 16:00 15.0 C 69 % 1015.5 hPa 0.0 l/m 6.1 km/h (2 Bft) SO 0.60 h 476 W/m 9.3 C 15.0 C
05.05.2005 17:00 15.5 C 69 % 1014.4 hPa 0.0 l/m 5.9 km/h (2 Bft) SO 0.65 h 356 W/m 9.7 C 15.5 C
05.05.2005 18:00 13.2 C 82 % 1015.5 hPa 2.4 l/m 2.5 km/h (1 Bft) W-NW 0.00 h 52 W/m 10.2 C 13.2 C
05.05.2005 19:00 11.9 C 98 % 1015.9 hPa 0.0 l/m 0.2 km/h (0 Bft) O-SO 0.00 h 31 W/m 11.6 C 11.9 C
05.05.2005 20:00 10.9 C 96 % 1016.7 hPa 0.0 l/m 0.3 km/h (0 Bft) W 0.00 h 3 W/m 10.3 C 10.9 C
05.05.2005 21:00 10.2 C 97 % 1017.1 hPa 0.0 l/m 0.2 km/h (0 Bft) O-SO 0.00 h 0 W/m 9.7 C 10.2 C
05.05.2005 22:00 10.1 C 99 % 1018.0 hPa 0.0 l/m 0.0 km/h (0 Bft) N 0.00 h 0 W/m 10.0 C 10.1 C
05.05.2005 23:00 10.4 C 99 % 1018.2 hPa 0.0 l/m 0.2 km/h (0 Bft) N-NO 0.00 h 0 W/m 10.2 C 10.4 C
06.05.2005 00:00 10.5 C 98 % 1018.1 hPa 0.0 l/m 6.4 km/h (2 Bft) W-NW 0.00 h 0 W/m 10.2 C 10.5 C
06.05.2005 01:00 9.8 C 96 % 1018.2 hPa 0.0 l/m 23.2 km/h (4 Bft) W-NW 0.00 h 0 W/m 9.2 C 7.7 C
06.05.2005 02:00 9.3 C 89 % 1018.3 hPa 0.0 l/m 22.6 km/h (4 Bft) NW 0.00 h 0 W/m 7.5 C 6.4 C
06.05.2005 03:00 8.8 C 87 % 1018.4 hPa 0.0 l/m 12.4 km/h (3 Bft) NW 0.00 h 0 W/m 6.7 C 7.0 C
06.05.2005 04:00 8.0 C 94 % 1018.5 hPa 0.0 l/m 4.0 km/h (1 Bft) O-SO 0.00 h 0 W/m 7.0 C 7.4 C
06.05.2005 05:00 8.0 C 92 % 1018.5 hPa 0.0 l/m 10.3 km/h (2 Bft) W-NW 0.00 h 0 W/m 6.8 C 6.3 C
06.05.2005 06:00 8.2 C 88 % 1018.5 hPa 0.0 l/m 11.8 km/h (2 Bft) W-NW 0.00 h 6 W/m 6.3 C 6.3 C
06.05.2005 07:00 8.4 C 82 % 1018.4 hPa 0.0 l/m 18.6 km/h (3 Bft) W-NW 0.00 h 50 W/m 5.5 C 5.6 C
06.05.2005 08:00 8.7 C 81 % 1018.4 hPa 0.0 l/m 18.6 km/h (3 Bft) W-NW 0.00 h 92 W/m 5.6 C 5.9 C
06.05.2005 09:00 9.1 C 78 % 1018.3 hPa 0.0 l/m 18.3 km/h (3 Bft) W-NW 0.00 h 126 W/m 5.6 C 6.5 C
06.05.2005 10:00 9.3 C 77 % 1018.5 hPa 0.0 l/m 12.8 km/h (3 Bft) W-NW 0.00 h 75 W/m 5.5 C 7.4 C
06.05.2005 11:00 9.3 C 79 % 1019.2 hPa 0.0 l/m 8.3 km/h (2 Bft) W-NW 0.00 h 67 W/m 5.9 C 8.2 C
06.05.2005 12:00 9.8 C 79 % 1018.4 hPa 0.0 l/m 1.5 km/h (1 Bft) W-NW 0.00 h 74 W/m 6.3 C 9.7 C
06.05.2005 13:00 11.0 C 73 % 1018.1 hPa 0.0 l/m 10.8 km/h (2 Bft) W-NW 0.00 h 185 W/m 6.4 C 11.0 C
06.05.2005 14:00 10.6 C 79 % 1018.1 hPa 0.0 l/m 8.0 km/h (2 Bft) W-NW 0.00 h 106 W/m 7.0 C 10.6 C
06.05.2005 15:00 11.0 C 80 % 1018.1 hPa 0.0 l/m 5.1 km/h (1 Bft) W-NW 0.00 h 161 W/m 7.6 C 11.0 C
06.05.2005 16:00 11.6 C 79 % 1018.0 hPa 0.6 l/m 9.0 km/h (2 Bft) W-NW 0.00 h 181 W/m 8.0 C 11.6 C
06.05.2005 17:00 11.3 C 85 % 1017.6 hPa 0.0 l/m 7.5 km/h (2 Bft) W-NW 0.43 h 302 W/m 8.8 C 11.3 C
06.05.2005 18:00 12.5 C 76 % 1016.8 hPa 0.0 l/m 14.3 km/h (3 Bft) W-NW 0.80 h 298 W/m 8.3 C 12.5 C
06.05.2005 19:00 11.6 C 80 % 1016.9 hPa 0.0 l/m 13.4 km/h (3 Bft) W-NW 0.25 h 101 W/m 8.2 C 11.6 C
06.05.2005 20:00 10.5 C 89 % 1017.1 hPa 0.0 l/m 2.7 km/h (1 Bft) SO 0.00 h 11 W/m 8.6 C 10.5 C
06.05.2005 21:00 8.6 C 96 % 1018.3 hPa 3.8 l/m 9.9 km/h (2 Bft) NW 0.00 h 0 W/m 8.0 C 7.2 C
06.05.2005 22:00 8.4 C 100 % 1018.4 hPa 0.3 l/m 3.1 km/h (1 Bft) O-SO 0.00 h 0 W/m 8.4 C 8.0 C
06.05.2005 23:00 8.5 C 100 % 1018.5 hPa 3.2 l/m 1.6 km/h (1 Bft) W-NW 0.00 h 0 W/m 8.5 C 8.4 C
07.05.2005 00:00 8.4 C 100 % 1018.5 hPa 0.6 l/m 2.9 km/h (1 Bft) W-NW 0.00 h 0 W/m 8.4 C 8.0 C
07.05.2005 01:00 8.1 C 100 % 1018.5 hPa 0.3 l/m 3.7 km/h (1 Bft) SO 0.00 h 0 W/m 8.1 C 7.5 C
07.05.2005 02:00 7.8 C 100 % 1018.2 hPa 1.6 l/m 6.2 km/h (2 Bft) O-SO 0.00 h 0 W/m 7.8 C 6.9 C
07.05.2005 03:00 7.8 C 100 % 1017.5 hPa 0.3 l/m 2.4 km/h (1 Bft) SO 0.00 h 0 W/m 7.8 C 7.4 C
07.05.2005 04:00 7.6 C 100 % 1016.9 hPa 0.0 l/m 0.1 km/h (0 Bft) N 0.00 h 0 W/m 7.6 C 7.6 C
07.05.2005 05:00 7.1 C 100 % 1016.3 hPa 0.0 l/m 0.0 km/h (0 Bft) N 0.00 h 0 W/m 7.1 C 7.1 C
07.05.2005 06:00 6.8 C 100 % 1016.4 hPa 0.0 l/m 0.0 km/h (0 Bft) N 0.00 h 22 W/m 6.8 C 6.8 C
07.05.2005 07:00 7.9 C 100 % 1015.4 hPa 0.0 l/m 0.5 km/h (0 Bft) O-SO 0.20 h 100 W/m 7.9 C 7.8 C
07.05.2005 08:00 9.5 C 97 % 1014.8 hPa 0.0 l/m 1.4 km/h (1 Bft) W-NW 0.83 h 294 W/m 9.0 C 9.4 C
07.05.2005 09:00 10.8 C 89 % 1013.9 hPa 0.0 l/m 1.6 km/h (1 Bft) W 0.20 h 204 W/m 9.1 C 10.8 C
07.05.2005 10:00 11.0 C 90 % 1013.3 hPa 0.3 l/m 3.0 km/h (1 Bft) W-NW 0.00 h 134 W/m 9.4 C 11.0 C
07.05.2005 11:00 10.5 C 91 % 1012.9 hPa 0.6 l/m 13.2 km/h (3 Bft) W-NW 0.00 h 189 W/m 9.0 C 10.5 C
07.05.2005 12:00 10.7 C 93 % 1012.7 hPa 1.3 l/m 12.5 km/h (3 Bft) W-NW 0.00 h 253 W/m 9.6 C 10.7 C
07.05.2005 13:00 10.9 C 89 % 1011.8 hPa 0.6 l/m 22.5 km/h (4 Bft) NW 0.23 h 344 W/m 9.2 C 10.9 C
07.05.2005 14:00 10.9 C 86 % 1011.8 hPa 0.0 l/m 13.9 km/h (3 Bft) W-NW 0.00 h 151 W/m 8.6 C 10.9 C
07.05.2005 15:00 10.5 C 88 % 1011.8 hPa 1.3 l/m 20.6 km/h (4 Bft) W-NW 0.00 h 185 W/m 8.6 C 10.5 C
07.05.2005 16:00 10.9 C 86 % 1011.1 hPa 0.3 l/m 20.4 km/h (4 Bft) W-NW 0.13 h 185 W/m 8.6 C 10.9 C
07.05.2005 17:00 11.5 C 86 % 1010.6 hPa 0.6 l/m 8.0 km/h (2 Bft) W-NW 0.23 h 147 W/m 9.3 C 11.5 C
07.05.2005 18:00 10.7 C 91 % 1010.6 hPa 0.6 l/m 18.7 km/h (3 Bft) W-NW 0.20 h 115 W/m 9.3 C 10.7 C
07.05.2005 19:00 10.3 C 95 % 1009.9 hPa 1.9 l/m 19.6 km/h (3 Bft) W-NW 0.00 h 28 W/m 9.5 C 10.0 C
07.05.2005 20:00 9.8 C 100 % 1010.3 hPa 0.6 l/m 28.1 km/h (4 Bft) NW 0.00 h 7 W/m 9.7 C 7.7 C
07.05.2005 21:00 8.8 C 100 % 1011.7 hPa 1.6 l/m 23.8 km/h (4 Bft) NW 0.00 h 0 W/m 8.8 C 5.6 C
07.05.2005 22:00 8.4 C 100 % 1012.2 hPa 0.3 l/m 20.3 km/h (4 Bft) NW 0.00 h 0 W/m 8.4 C 5.4 C
07.05.2005 23:00 8.1 C 100 % 1012.2 hPa 0.0 l/m 12.9 km/h (3 Bft) W-NW 0.00 h 0 W/m 8.1 C 6.0 C
08.05.2005 00:00 7.6 C 100 % 1012.8 hPa 0.0 l/m 8.5 km/h (2 Bft) W-NW 0.00 h 0 W/m 7.6 C 6.3 C
08.05.2005 01:00 7.0 C 100 % 1012.4 hPa 0.0 l/m 14.5 km/h (3 Bft) W-NW 0.00 h 0 W/m 7.0 C 4.4 C
08.05.2005 02:00 6.6 C 100 % 1013.1 hPa 0.0 l/m 12.5 km/h (3 Bft) W-NW 0.00 h 0 W/m 6.6 C 4.4 C
08.05.2005 03:00 5.5 C 100 % 1013.6 hPa 0.0 l/m 7.2 km/h (2 Bft) W-NW 0.00 h 0 W/m 5.5 C 3.9 C
08.05.2005 04:00 5.2 C 100 % 1013.7 hPa 0.0 l/m 13.9 km/h (3 Bft) W-NW 0.00 h 0 W/m 5.2 C 2.6 C
08.05.2005 05:00 5.1 C 100 % 1014.3 hPa 0.0 l/m 16.0 km/h (3 Bft) W-NW 0.00 h 0 W/m 5.1 C 1.9 C
08.05.2005 06:00 4.3 C 100 % 1015.0 hPa 0.0 l/m 1.9 km/h (1 Bft) W-NW 0.15 h 36 W/m 4.2 C 3.9 C
08.05.2005 07:00 5.3 C 95 % 1015.7 hPa 0.0 l/m 1.4 km/h (1 Bft) W-NW 0.88 h 204 W/m 4.6 C 5.2 C
08.05.2005 08:00 6.8 C 81 % 1016.0 hPa 0.0 l/m 3.4 km/h (1 Bft) W-NW 0.72 h 360 W/m 3.8 C 6.3 C
08.05.2005 09:00 8.1 C 72 % 1016.4 hPa 0.0 l/m 12.8 km/h (3 Bft) W-NW 1.00 h 541 W/m 3.3 C 6.1 C
08.05.2005 10:00 9.1 C 61 % 1015.8 hPa 0.0 l/m 16.8 km/h (3 Bft) W-NW 1.02 h 701 W/m 2.0 C 6.8 C
08.05.2005 11:00 10.5 C 52 % 1015.0 hPa 0.0 l/m 20.9 km/h (4 Bft) W-NW 0.98 h 815 W/m 1.1 C 10.0 C
08.05.2005 12:00 12.0 C 47 % 1014.6 hPa 0.0 l/m 15.0 km/h (3 Bft) NW 0.97 h 881 W/m 1.0 C 12.0 C
08.05.2005 13:00 12.6 C 42 % 1013.7 hPa 0.0 l/m 20.6 km/h (4 Bft) W-NW 0.80 h 784 W/m -0.0 C 12.6 C
08.05.2005 14:00 13.8 C 38 % 1013.0 hPa 0.0 l/m 24.3 km/h (4 Bft) W-NW 1.00 h 889 W/m -0.2 C 13.8 C
08.05.2005 15:00 14.2 C 31 % 1012.5 hPa 0.0 l/m 28.2 km/h (4 Bft) W-NW 0.93 h 752 W/m -2.8 C 14.2 C
08.05.2005 16:00 15.0 C 25 % 1012.2 hPa 0.0 l/m 26.6 km/h (4 Bft) W-NW 1.00 h 713 W/m -5.0 C 15.0 C
08.05.2005 17:00 14.7 C 34 % 1011.3 hPa 0.0 l/m 23.3 km/h (4 Bft) W-NW 0.73 h 439 W/m -1.2 C 14.7 C
08.05.2005 18:00 13.4 C 39 % 1011.5 hPa 0.0 l/m 22.7 km/h (4 Bft) W-NW 0.33 h 184 W/m -0.1 C 13.4 C
08.05.2005 19:00 12.5 C 45 % 1011.6 hPa 0.0 l/m 17.2 km/h (3 Bft) W-NW 0.00 h 77 W/m 1.0 C 12.5 C
08.05.2005 20:00 11.7 C 51 % 1011.7 hPa 0.0 l/m 8.3 km/h (2 Bft) W-NW 0.00 h 19 W/m 1.8 C 11.7 C
08.05.2005 21:00 10.3 C 59 % 1012.4 hPa 0.0 l/m 0.1 km/h (0 Bft) W-NW 0.00 h 0 W/m 2.6 C 10.3 C
08.05.2005 22:00 8.8 C 72 % 1013.2 hPa 0.0 l/m 0.0 km/h (0 Bft) N 0.00 h 0 W/m 4.0 C 8.8 C
08.05.2005 23:00 8.3 C 79 % 1013.2 hPa 0.0 l/m 3.7 km/h (1 Bft) O-SO 0.00 h 0 W/m 4.8 C 7.8 C
Min-Datum _ 08.05.05 08.05.05 07.05.05 - 02.05.05 - - - 08.05.05 08.05.05
_ Min-Zeit 06:15 15:34 17:34 - 00:00 - - - 15:34 04:43
Minimum _ 3.9 C 20 % 1009.7 hPa - 0.0 km/h (0 Bft) - - - -8.6 C 0.6 C
Max-Datum _ 02.05.05 02.05.05 06.05.05 06.05.05 03.05.05 - 02.05.05 04.05.05 03.05.05 02.05.05
_ Max-Zeit 14:34 05:28 23:52 21:18 15:20 - 11:33 12:15 12:10 14:34
Maximum _ 28.7 C 100 % 1019.5 hPa 3.8 l/m 64.0 km/h
NW (8 Bft)
- 0.05 h 1054 W/m 16.4 C 28.7 C
Durchschnitt _ 12.2 C 83 % 1015.8 hPa #41.5 l/m 8.4 km/h (2 Bft) W-NW #38:39 h 271 W/m 8.7 C 11.9 C

Durchschnitt Minimum Temp.11.7 C
Durchschnitt Maximum Temp.12.8 C
© Kaiko 2005